sensor_id;sensor_type;location;lat;lon;timestamp;P1;durP1;ratioP1;P2;durP2;ratioP2
36283;SDS011;56085;48.910;9.478;2023-12-04T00:02:04;16.90;;;8.85;;
36283;SDS011;56085;48.910;9.478;2023-12-04T00:04:29;15.68;;;8.45;;
36283;SDS011;56085;48.910;9.478;2023-12-04T00:06:55;13.25;;;8.23;;
36283;SDS011;56085;48.910;9.478;2023-12-04T00:09:20;14.88;;;8.15;;
36283;SDS011;56085;48.910;9.478;2023-12-04T00:11:46;15.45;;;8.13;;
36283;SDS011;56085;48.910;9.478;2023-12-04T00:14:11;11.70;;;7.07;;
36283;SDS011;56085;48.910;9.478;2023-12-04T00:16:36;12.27;;;6.25;;
36283;SDS011;56085;48.910;9.478;2023-12-04T00:19:01;15.68;;;7.57;;
36283;SDS011;56085;48.910;9.478;2023-12-04T00:21:27;11.32;;;6.95;;
36283;SDS011;56085;48.910;9.478;2023-12-04T00:23:52;11.52;;;6.43;;
36283;SDS011;56085;48.910;9.478;2023-12-04T00:26:18;12.00;;;6.80;;
36283;SDS011;56085;48.910;9.478;2023-12-04T00:28:43;11.93;;;6.20;;
36283;SDS011;56085;48.910;9.478;2023-12-04T00:31:08;11.73;;;6.72;;
36283;SDS011;56085;48.910;9.478;2023-12-04T00:33:35;16.20;;;8.15;;
36283;SDS011;56085;48.910;9.478;2023-12-04T00:36:00;11.15;;;6.43;;
36283;SDS011;56085;48.910;9.478;2023-12-04T00:38:26;12.75;;;7.50;;
36283;SDS011;56085;48.910;9.478;2023-12-04T00:40:51;12.10;;;7.47;;
36283;SDS011;56085;48.910;9.478;2023-12-04T00:43:16;11.88;;;7.10;;
36283;SDS011;56085;48.910;9.478;2023-12-04T00:45:41;12.43;;;7.85;;
36283;SDS011;56085;48.910;9.478;2023-12-04T00:48:07;13.68;;;7.43;;
36283;SDS011;56085;48.910;9.478;2023-12-04T00:50:32;14.30;;;7.57;;
36283;SDS011;56085;48.910;9.478;2023-12-04T00:52:57;13.88;;;8.18;;
36283;SDS011;56085;48.910;9.478;2023-12-04T00:55:22;13.23;;;7.38;;
36283;SDS011;56085;48.910;9.478;2023-12-04T00:57:48;13.15;;;7.95;;
36283;SDS011;56085;48.910;9.478;2023-12-04T01:00:13;15.70;;;8.40;;
36283;SDS011;56085;48.910;9.478;2023-12-04T01:02:39;14.50;;;7.95;;
36283;SDS011;56085;48.910;9.478;2023-12-04T01:05:05;13.60;;;7.78;;
36283;SDS011;56085;48.910;9.478;2023-12-04T01:07:30;18.00;;;8.90;;
36283;SDS011;56085;48.910;9.478;2023-12-04T01:09:55;14.18;;;7.90;;
36283;SDS011;56085;48.910;9.478;2023-12-04T01:12:21;14.68;;;8.00;;
36283;SDS011;56085;48.910;9.478;2023-12-04T01:14:46;14.05;;;8.43;;
36283;SDS011;56085;48.910;9.478;2023-12-04T01:17:12;15.77;;;8.32;;
36283;SDS011;56085;48.910;9.478;2023-12-04T01:19:37;16.45;;;8.52;;
36283;SDS011;56085;48.910;9.478;2023-12-04T01:22:02;11.77;;;7.50;;
36283;SDS011;56085;48.910;9.478;2023-12-04T01:24:28;15.05;;;8.75;;
36283;SDS011;56085;48.910;9.478;2023-12-04T01:26:53;15.45;;;9.00;;
36283;SDS011;56085;48.910;9.478;2023-12-04T01:29:18;15.10;;;8.07;;
36283;SDS011;56085;48.910;9.478;2023-12-04T01:31:44;16.17;;;7.97;;
36283;SDS011;56085;48.910;9.478;2023-12-04T01:34:09;18.30;;;9.02;;
36283;SDS011;56085;48.910;9.478;2023-12-04T01:36:34;13.07;;;8.27;;
36283;SDS011;56085;48.910;9.478;2023-12-04T01:39:00;15.68;;;8.48;;
36283;SDS011;56085;48.910;9.478;2023-12-04T01:41:25;14.32;;;8.35;;
36283;SDS011;56085;48.910;9.478;2023-12-04T01:43:50;14.40;;;7.80;;
36283;SDS011;56085;48.910;9.478;2023-12-04T01:46:16;15.80;;;8.48;;
36283;SDS011;56085;48.910;9.478;2023-12-04T01:48:43;12.70;;;7.95;;
36283;SDS011;56085;48.910;9.478;2023-12-04T01:51:10;11.70;;;7.72;;
36283;SDS011;56085;48.910;9.478;2023-12-04T01:53:38;12.13;;;6.97;;
36283;SDS011;56085;48.910;9.478;2023-12-04T01:56:04;13.35;;;7.82;;
36283;SDS011;56085;48.910;9.478;2023-12-04T01:58:30;12.48;;;7.90;;
36283;SDS011;56085;48.910;9.478;2023-12-04T02:00:56;14.32;;;8.38;;
36283;SDS011;56085;48.910;9.478;2023-12-04T02:03:22;14.40;;;7.78;;
36283;SDS011;56085;48.910;9.478;2023-12-04T02:05:47;17.85;;;9.23;;
36283;SDS011;56085;48.910;9.478;2023-12-04T02:08:14;13.25;;;8.02;;
36283;SDS011;56085;48.910;9.478;2023-12-04T02:10:40;16.63;;;8.68;;
36283;SDS011;56085;48.910;9.478;2023-12-04T02:13:05;15.70;;;7.57;;
36283;SDS011;56085;48.910;9.478;2023-12-04T02:15:31;13.63;;;7.97;;
36283;SDS011;56085;48.910;9.478;2023-12-04T02:17:57;14.63;;;7.03;;
36283;SDS011;56085;48.910;9.478;2023-12-04T02:20:30;14.60;;;7.53;;
36283;SDS011;56085;48.910;9.478;2023-12-04T02:22:59;12.43;;;7.03;;
36283;SDS011;56085;48.910;9.478;2023-12-04T02:25:28;14.45;;;7.85;;
36283;SDS011;56085;48.910;9.478;2023-12-04T02:27:54;11.32;;;6.97;;
36283;SDS011;56085;48.910;9.478;2023-12-04T02:30:24;13.23;;;7.28;;
36283;SDS011;56085;48.910;9.478;2023-12-04T02:32:51;14.13;;;7.50;;
36283;SDS011;56085;48.910;9.478;2023-12-04T02:35:22;12.45;;;7.03;;
36283;SDS011;56085;48.910;9.478;2023-12-04T02:37:49;12.02;;;6.93;;
36283;SDS011;56085;48.910;9.478;2023-12-04T02:40:16;12.10;;;7.13;;
36283;SDS011;56085;48.910;9.478;2023-12-04T02:42:41;11.15;;;6.22;;
36283;SDS011;56085;48.910;9.478;2023-12-04T02:45:07;12.13;;;6.53;;
36283;SDS011;56085;48.910;9.478;2023-12-04T02:47:33;11.02;;;5.80;;
36283;SDS011;56085;48.910;9.478;2023-12-04T02:49:58;12.75;;;6.82;;
36283;SDS011;56085;48.910;9.478;2023-12-04T02:52:23;10.60;;;6.22;;
36283;SDS011;56085;48.910;9.478;2023-12-04T02:54:49;11.35;;;7.15;;
36283;SDS011;56085;48.910;9.478;2023-12-04T02:57:14;13.27;;;7.57;;
36283;SDS011;56085;48.910;9.478;2023-12-04T02:59:39;14.18;;;8.13;;
36283;SDS011;56085;48.910;9.478;2023-12-04T03:02:05;12.40;;;6.93;;
36283;SDS011;56085;48.910;9.478;2023-12-04T03:04:30;13.15;;;7.75;;
36283;SDS011;56085;48.910;9.478;2023-12-04T03:06:56;12.82;;;6.88;;
36283;SDS011;56085;48.910;9.478;2023-12-04T03:09:22;11.68;;;7.00;;
36283;SDS011;56085;48.910;9.478;2023-12-04T03:11:48;14.80;;;7.50;;
36283;SDS011;56085;48.910;9.478;2023-12-04T03:14:13;13.32;;;7.05;;
36283;SDS011;56085;48.910;9.478;2023-12-04T03:16:39;12.30;;;7.50;;
36283;SDS011;56085;48.910;9.478;2023-12-04T03:19:04;13.20;;;7.30;;
36283;SDS011;56085;48.910;9.478;2023-12-04T03:21:30;13.35;;;7.03;;
36283;SDS011;56085;48.910;9.478;2023-12-04T03:23:55;11.90;;;6.63;;
36283;SDS011;56085;48.910;9.478;2023-12-04T03:26:21;12.75;;;7.15;;
36283;SDS011;56085;48.910;9.478;2023-12-04T03:28:46;12.65;;;7.10;;
36283;SDS011;56085;48.910;9.478;2023-12-04T03:31:11;12.75;;;6.60;;
36283;SDS011;56085;48.910;9.478;2023-12-04T03:33:37;12.00;;;6.78;;
36283;SDS011;56085;48.910;9.478;2023-12-04T03:36:02;10.70;;;5.80;;
36283;SDS011;56085;48.910;9.478;2023-12-04T03:38:28;10.63;;;5.55;;
36283;SDS011;56085;48.910;9.478;2023-12-04T03:40:53;11.40;;;4.97;;
36283;SDS011;56085;48.910;9.478;2023-12-04T03:43:18;12.70;;;5.28;;
36283;SDS011;56085;48.910;9.478;2023-12-04T03:45:44;8.18;;;4.78;;
36283;SDS011;56085;48.910;9.478;2023-12-04T03:48:09;10.13;;;4.45;;
36283;SDS011;56085;48.910;9.478;2023-12-04T03:50:34;10.43;;;5.88;;
36283;SDS011;56085;48.910;9.478;2023-12-04T03:52:59;15.05;;;7.00;;
36283;SDS011;56085;48.910;9.478;2023-12-04T03:55:25;13.38;;;8.05;;
36283;SDS011;56085;48.910;9.478;2023-12-04T03:57:50;13.75;;;7.05;;
36283;SDS011;56085;48.910;9.478;2023-12-04T04:00:16;13.68;;;7.18;;
36283;SDS011;56085;48.910;9.478;2023-12-04T04:02:42;14.52;;;6.90;;
36283;SDS011;56085;48.910;9.478;2023-12-04T04:05:08;11.90;;;7.05;;
36283;SDS011;56085;48.910;9.478;2023-12-04T04:07:33;12.38;;;6.38;;
36283;SDS011;56085;48.910;9.478;2023-12-04T04:09:58;9.63;;;6.38;;
36283;SDS011;56085;48.910;9.478;2023-12-04T04:12:24;10.68;;;6.20;;
36283;SDS011;56085;48.910;9.478;2023-12-04T04:14:49;10.32;;;6.10;;
36283;SDS011;56085;48.910;9.478;2023-12-04T04:17:14;10.50;;;5.85;;
36283;SDS011;56085;48.910;9.478;2023-12-04T04:19:40;11.52;;;6.47;;
36283;SDS011;56085;48.910;9.478;2023-12-04T04:22:05;9.60;;;5.20;;
36283;SDS011;56085;48.910;9.478;2023-12-04T04:24:31;11.02;;;5.78;;
36283;SDS011;56085;48.910;9.478;2023-12-04T04:26:56;8.45;;;5.57;;
36283;SDS011;56085;48.910;9.478;2023-12-04T04:29:21;10.93;;;5.63;;
36283;SDS011;56085;48.910;9.478;2023-12-04T04:31:46;12.07;;;5.72;;
36283;SDS011;56085;48.910;9.478;2023-12-04T04:34:12;10.55;;;6.03;;
36283;SDS011;56085;48.910;9.478;2023-12-04T04:36:37;14.40;;;7.50;;
36283;SDS011;56085;48.910;9.478;2023-12-04T04:39:02;12.18;;;6.00;;
36283;SDS011;56085;48.910;9.478;2023-12-04T04:41:28;10.45;;;5.85;;
36283;SDS011;56085;48.910;9.478;2023-12-04T04:43:53;9.73;;;5.70;;
36283;SDS011;56085;48.910;9.478;2023-12-04T04:46:19;9.98;;;5.20;;
36283;SDS011;56085;48.910;9.478;2023-12-04T04:48:44;13.60;;;6.90;;
36283;SDS011;56085;48.910;9.478;2023-12-04T04:51:09;14.05;;;6.78;;
36283;SDS011;56085;48.910;9.478;2023-12-04T04:53:35;10.48;;;5.72;;
36283;SDS011;56085;48.910;9.478;2023-12-04T04:56:00;12.13;;;6.38;;
36283;SDS011;56085;48.910;9.478;2023-12-04T04:58:25;12.52;;;5.90;;
36283;SDS011;56085;48.910;9.478;2023-12-04T05:00:51;10.45;;;6.15;;
36283;SDS011;56085;48.910;9.478;2023-12-04T05:03:16;10.52;;;6.20;;
36283;SDS011;56085;48.910;9.478;2023-12-04T05:05:41;9.27;;;5.50;;
36283;SDS011;56085;48.910;9.478;2023-12-04T05:08:07;11.75;;;5.75;;
36283;SDS011;56085;48.910;9.478;2023-12-04T05:10:32;11.13;;;5.95;;
36283;SDS011;56085;48.910;9.478;2023-12-04T05:12:57;10.27;;;6.13;;
36283;SDS011;56085;48.910;9.478;2023-12-04T05:15:23;10.05;;;5.80;;
36283;SDS011;56085;48.910;9.478;2023-12-04T05:17:48;9.00;;;5.95;;
36283;SDS011;56085;48.910;9.478;2023-12-04T05:20:13;9.60;;;5.70;;
36283;SDS011;56085;48.910;9.478;2023-12-04T05:22:39;16.00;;;7.40;;
36283;SDS011;56085;48.910;9.478;2023-12-04T05:25:05;16.95;;;9.43;;
36283;SDS011;56085;48.910;9.478;2023-12-04T05:27:31;19.15;;;10.27;;
36283;SDS011;56085;48.910;9.478;2023-12-04T05:29:56;16.65;;;9.55;;
36283;SDS011;56085;48.910;9.478;2023-12-04T05:32:21;15.55;;;8.93;;
36283;SDS011;56085;48.910;9.478;2023-12-04T05:34:47;16.33;;;8.98;;
36283;SDS011;56085;48.910;9.478;2023-12-04T05:37:12;15.73;;;9.27;;
36283;SDS011;56085;48.910;9.478;2023-12-04T05:39:37;13.88;;;7.55;;
36283;SDS011;56085;48.910;9.478;2023-12-04T05:42:02;12.02;;;7.50;;
36283;SDS011;56085;48.910;9.478;2023-12-04T05:44:28;13.35;;;7.88;;
36283;SDS011;56085;48.910;9.478;2023-12-04T05:46:53;24.88;;;11.68;;
36283;SDS011;56085;48.910;9.478;2023-12-04T05:49:18;17.60;;;10.00;;
36283;SDS011;56085;48.910;9.478;2023-12-04T05:51:44;30.60;;;17.38;;
36283;SDS011;56085;48.910;9.478;2023-12-04T05:54:09;24.58;;;11.82;;
36283;SDS011;56085;48.910;9.478;2023-12-04T05:56:34;21.25;;;9.57;;
36283;SDS011;56085;48.910;9.478;2023-12-04T05:58:59;14.18;;;7.93;;
36283;SDS011;56085;48.910;9.478;2023-12-04T06:01:25;12.30;;;6.68;;
36283;SDS011;56085;48.910;9.478;2023-12-04T06:03:50;13.23;;;6.38;;
36283;SDS011;56085;48.910;9.478;2023-12-04T06:06:15;8.35;;;5.28;;
36283;SDS011;56085;48.910;9.478;2023-12-04T06:08:41;9.20;;;5.10;;
36283;SDS011;56085;48.910;9.478;2023-12-04T06:11:06;9.35;;;4.82;;
36283;SDS011;56085;48.910;9.478;2023-12-04T06:13:31;8.68;;;5.22;;
36283;SDS011;56085;48.910;9.478;2023-12-04T06:15:57;6.93;;;3.95;;
36283;SDS011;56085;48.910;9.478;2023-12-04T06:18:22;10.48;;;5.55;;
36283;SDS011;56085;48.910;9.478;2023-12-04T06:20:47;12.55;;;6.32;;
36283;SDS011;56085;48.910;9.478;2023-12-04T06:23:13;10.80;;;5.47;;
36283;SDS011;56085;48.910;9.478;2023-12-04T06:25:39;11.02;;;4.95;;
36283;SDS011;56085;48.910;9.478;2023-12-04T06:28:05;11.30;;;4.90;;
36283;SDS011;56085;48.910;9.478;2023-12-04T06:30:30;9.77;;;4.68;;
36283;SDS011;56085;48.910;9.478;2023-12-04T06:32:56;8.60;;;3.90;;
36283;SDS011;56085;48.910;9.478;2023-12-04T06:35:22;7.70;;;3.78;;
36283;SDS011;56085;48.910;9.478;2023-12-04T06:37:51;7.65;;;4.30;;
36283;SDS011;56085;48.910;9.478;2023-12-04T06:40:19;6.72;;;4.10;;
36283;SDS011;56085;48.910;9.478;2023-12-04T06:42:45;8.60;;;4.30;;
36283;SDS011;56085;48.910;9.478;2023-12-04T06:45:10;7.60;;;4.13;;
36283;SDS011;56085;48.910;9.478;2023-12-04T06:47:36;6.50;;;4.10;;
36283;SDS011;56085;48.910;9.478;2023-12-04T06:50:02;6.90;;;3.75;;
36283;SDS011;56085;48.910;9.478;2023-12-04T06:52:28;6.38;;;3.55;;
36283;SDS011;56085;48.910;9.478;2023-12-04T06:54:53;7.68;;;3.72;;
36283;SDS011;56085;48.910;9.478;2023-12-04T06:57:18;8.18;;;4.30;;
36283;SDS011;56085;48.910;9.478;2023-12-04T06:59:43;7.78;;;4.40;;
36283;SDS011;56085;48.910;9.478;2023-12-04T07:02:09;8.50;;;4.22;;
36283;SDS011;56085;48.910;9.478;2023-12-04T07:04:34;8.77;;;4.25;;
36283;SDS011;56085;48.910;9.478;2023-12-04T07:06:59;10.05;;;4.80;;
36283;SDS011;56085;48.910;9.478;2023-12-04T07:09:30;8.82;;;4.22;;
36283;SDS011;56085;48.910;9.478;2023-12-04T07:11:56;8.25;;;4.03;;
36283;SDS011;56085;48.910;9.478;2023-12-04T07:14:21;8.75;;;4.00;;
36283;SDS011;56085;48.910;9.478;2023-12-04T07:16:46;7.97;;;4.43;;
36283;SDS011;56085;48.910;9.478;2023-12-04T07:19:12;7.25;;;3.55;;
36283;SDS011;56085;48.910;9.478;2023-12-04T07:21:39;8.43;;;4.32;;
36283;SDS011;56085;48.910;9.478;2023-12-04T07:24:06;14.85;;;7.40;;
36283;SDS011;56085;48.910;9.478;2023-12-04T07:26:33;10.90;;;5.60;;
36283;SDS011;56085;48.910;9.478;2023-12-04T07:28:59;8.48;;;5.05;;
36283;SDS011;56085;48.910;9.478;2023-12-04T07:31:24;11.88;;;6.00;;
36283;SDS011;56085;48.910;9.478;2023-12-04T07:33:52;11.00;;;6.38;;
36283;SDS011;56085;48.910;9.478;2023-12-04T07:36:18;11.30;;;6.53;;
36283;SDS011;56085;48.910;9.478;2023-12-04T07:38:43;11.68;;;7.25;;
36283;SDS011;56085;48.910;9.478;2023-12-04T07:41:08;10.15;;;6.30;;
36283;SDS011;56085;48.910;9.478;2023-12-04T07:43:33;6.68;;;4.45;;
36283;SDS011;56085;48.910;9.478;2023-12-04T07:45:59;9.25;;;5.15;;
36283;SDS011;56085;48.910;9.478;2023-12-04T07:48:25;9.73;;;4.38;;
36283;SDS011;56085;48.910;9.478;2023-12-04T07:50:50;7.82;;;4.30;;
36283;SDS011;56085;48.910;9.478;2023-12-04T07:53:15;8.68;;;4.22;;
36283;SDS011;56085;48.910;9.478;2023-12-04T07:55:40;8.88;;;4.70;;
36283;SDS011;56085;48.910;9.478;2023-12-04T07:58:06;6.22;;;3.28;;
36283;SDS011;56085;48.910;9.478;2023-12-04T08:00:31;7.57;;;3.83;;
36283;SDS011;56085;48.910;9.478;2023-12-04T08:02:56;8.32;;;4.10;;
36283;SDS011;56085;48.910;9.478;2023-12-04T08:05:21;7.25;;;3.50;;
36283;SDS011;56085;48.910;9.478;2023-12-04T08:07:48;6.93;;;3.97;;
36283;SDS011;56085;48.910;9.478;2023-12-04T08:10:13;8.88;;;4.78;;
36283;SDS011;56085;48.910;9.478;2023-12-04T08:12:39;7.65;;;4.25;;
36283;SDS011;56085;48.910;9.478;2023-12-04T08:15:04;7.10;;;3.85;;
36283;SDS011;56085;48.910;9.478;2023-12-04T08:17:30;6.88;;;3.70;;
36283;SDS011;56085;48.910;9.478;2023-12-04T08:19:55;6.40;;;3.47;;
36283;SDS011;56085;48.910;9.478;2023-12-04T08:22:21;7.65;;;4.13;;
36283;SDS011;56085;48.910;9.478;2023-12-04T08:24:46;7.32;;;3.75;;
36283;SDS011;56085;48.910;9.478;2023-12-04T08:27:11;6.65;;;4.05;;
36283;SDS011;56085;48.910;9.478;2023-12-04T08:29:36;6.43;;;4.32;;
36283;SDS011;56085;48.910;9.478;2023-12-04T08:32:04;6.88;;;4.35;;
36283;SDS011;56085;48.910;9.478;2023-12-04T08:34:30;8.68;;;4.15;;
36283;SDS011;56085;48.910;9.478;2023-12-04T08:36:56;8.60;;;4.95;;
36283;SDS011;56085;48.910;9.478;2023-12-04T08:39:21;8.85;;;4.18;;
36283;SDS011;56085;48.910;9.478;2023-12-04T08:41:47;7.47;;;3.95;;
36283;SDS011;56085;48.910;9.478;2023-12-04T08:44:13;7.15;;;4.15;;
36283;SDS011;56085;48.910;9.478;2023-12-04T08:46:38;6.65;;;3.83;;
36283;SDS011;56085;48.910;9.478;2023-12-04T08:49:04;5.55;;;3.95;;
36283;SDS011;56085;48.910;9.478;2023-12-04T08:51:30;7.28;;;4.25;;
36283;SDS011;56085;48.910;9.478;2023-12-04T08:53:56;7.65;;;4.38;;
36283;SDS011;56085;48.910;9.478;2023-12-04T08:56:21;8.27;;;4.75;;
36283;SDS011;56085;48.910;9.478;2023-12-04T08:58:46;7.72;;;4.50;;
36283;SDS011;56085;48.910;9.478;2023-12-04T09:01:12;8.48;;;4.60;;
36283;SDS011;56085;48.910;9.478;2023-12-04T09:03:37;12.25;;;5.90;;
36283;SDS011;56085;48.910;9.478;2023-12-04T09:06:02;17.15;;;7.40;;
36283;SDS011;56085;48.910;9.478;2023-12-04T09:08:28;12.73;;;6.30;;
36283;SDS011;56085;48.910;9.478;2023-12-04T09:10:53;17.27;;;7.18;;
36283;SDS011;56085;48.910;9.478;2023-12-04T09:13:18;11.52;;;5.65;;
36283;SDS011;56085;48.910;9.478;2023-12-04T09:15:44;9.93;;;4.72;;
36283;SDS011;56085;48.910;9.478;2023-12-04T09:18:09;7.90;;;3.85;;
36283;SDS011;56085;48.910;9.478;2023-12-04T09:20:34;7.53;;;4.35;;
36283;SDS011;56085;48.910;9.478;2023-12-04T09:23:00;7.93;;;4.55;;
36283;SDS011;56085;48.910;9.478;2023-12-04T09:25:25;7.68;;;4.95;;
36283;SDS011;56085;48.910;9.478;2023-12-04T09:27:51;6.93;;;3.92;;
36283;SDS011;56085;48.910;9.478;2023-12-04T09:30:16;9.32;;;5.05;;
36283;SDS011;56085;48.910;9.478;2023-12-04T09:32:42;8.70;;;4.55;;
36283;SDS011;56085;48.910;9.478;2023-12-04T09:35:07;8.63;;;4.95;;
36283;SDS011;56085;48.910;9.478;2023-12-04T09:37:32;9.80;;;4.57;;
36283;SDS011;56085;48.910;9.478;2023-12-04T09:39:57;6.28;;;4.20;;
36283;SDS011;56085;48.910;9.478;2023-12-04T09:42:23;7.93;;;4.85;;
36283;SDS011;56085;48.910;9.478;2023-12-04T09:44:48;8.85;;;5.20;;
36283;SDS011;56085;48.910;9.478;2023-12-04T09:47:20;10.23;;;4.93;;
36283;SDS011;56085;48.910;9.478;2023-12-04T09:49:46;9.35;;;5.05;;
36283;SDS011;56085;48.910;9.478;2023-12-04T09:52:13;9.82;;;5.10;;
36283;SDS011;56085;48.910;9.478;2023-12-04T09:54:39;9.38;;;4.90;;
36283;SDS011;56085;48.910;9.478;2023-12-04T09:57:06;8.07;;;4.32;;
36283;SDS011;56085;48.910;9.478;2023-12-04T09:59:31;8.05;;;4.60;;
36283;SDS011;56085;48.910;9.478;2023-12-04T10:01:57;6.75;;;4.07;;
36283;SDS011;56085;48.910;9.478;2023-12-04T10:04:23;9.20;;;4.35;;
36283;SDS011;56085;48.910;9.478;2023-12-04T10:06:49;8.00;;;5.00;;
36283;SDS011;56085;48.910;9.478;2023-12-04T10:09:17;9.55;;;4.95;;
36283;SDS011;56085;48.910;9.478;2023-12-04T10:11:44;9.07;;;5.60;;
36283;SDS011;56085;48.910;9.478;2023-12-04T10:14:17;9.07;;;4.95;;
36283;SDS011;56085;48.910;9.478;2023-12-04T10:16:43;10.07;;;5.00;;
36283;SDS011;56085;48.910;9.478;2023-12-04T10:19:20;11.18;;;5.18;;
36283;SDS011;56085;48.910;9.478;2023-12-04T10:21:48;8.32;;;4.78;;
36283;SDS011;56085;48.910;9.478;2023-12-04T10:24:27;9.27;;;5.15;;
36283;SDS011;56085;48.910;9.478;2023-12-04T10:27:09;9.70;;;5.55;;
36283;SDS011;56085;48.910;9.478;2023-12-04T10:29:42;8.55;;;5.38;;
36283;SDS011;56085;48.910;9.478;2023-12-04T10:32:08;8.95;;;5.32;;
36283;SDS011;56085;48.910;9.478;2023-12-04T10:34:34;8.27;;;4.88;;
36283;SDS011;56085;48.910;9.478;2023-12-04T10:37:00;11.07;;;5.32;;
36283;SDS011;56085;48.910;9.478;2023-12-04T10:39:25;9.73;;;5.43;;
36283;SDS011;56085;48.910;9.478;2023-12-04T10:42:02;10.32;;;4.90;;
36283;SDS011;56085;48.910;9.478;2023-12-04T10:44:30;8.65;;;4.50;;
36283;SDS011;56085;48.910;9.478;2023-12-04T10:46:56;10.13;;;5.43;;
36283;SDS011;56085;48.910;9.478;2023-12-04T10:49:26;9.18;;;5.40;;
36283;SDS011;56085;48.910;9.478;2023-12-04T10:51:53;11.45;;;5.43;;
36283;SDS011;56085;48.910;9.478;2023-12-04T10:54:21;9.70;;;5.22;;
36283;SDS011;56085;48.910;9.478;2023-12-04T10:56:46;9.45;;;5.43;;
36283;SDS011;56085;48.910;9.478;2023-12-04T10:59:15;8.93;;;4.90;;
36283;SDS011;56085;48.910;9.478;2023-12-04T11:01:46;11.52;;;5.75;;
36283;SDS011;56085;48.910;9.478;2023-12-04T11:04:16;8.80;;;4.70;;
36283;SDS011;56085;48.910;9.478;2023-12-04T11:06:45;8.95;;;4.85;;
36283;SDS011;56085;48.910;9.478;2023-12-04T11:09:16;8.88;;;5.55;;
36283;SDS011;56085;48.910;9.478;2023-12-04T11:11:43;9.10;;;5.03;;
36283;SDS011;56085;48.910;9.478;2023-12-04T11:14:13;11.25;;;5.82;;
36283;SDS011;56085;48.910;9.478;2023-12-04T11:16:47;8.52;;;5.13;;
36283;SDS011;56085;48.910;9.478;2023-12-04T11:19:18;12.18;;;6.30;;
36283;SDS011;56085;48.910;9.478;2023-12-04T11:21:58;8.90;;;5.75;;
36283;SDS011;56085;48.910;9.478;2023-12-04T11:24:23;8.40;;;5.35;;
36283;SDS011;56085;48.910;9.478;2023-12-04T11:26:49;10.25;;;6.45;;
36283;SDS011;56085;48.910;9.478;2023-12-04T11:29:15;11.20;;;6.70;;
36283;SDS011;56085;48.910;9.478;2023-12-04T11:31:42;18.92;;;9.82;;
36283;SDS011;56085;48.910;9.478;2023-12-04T11:34:08;28.10;;;15.10;;
36283;SDS011;56085;48.910;9.478;2023-12-04T11:36:36;24.70;;;13.05;;
36283;SDS011;56085;48.910;9.478;2023-12-04T11:39:02;14.75;;;9.00;;
36283;SDS011;56085;48.910;9.478;2023-12-04T11:41:29;15.20;;;7.82;;
36283;SDS011;56085;48.910;9.478;2023-12-04T11:43:55;16.45;;;8.70;;
36283;SDS011;56085;48.910;9.478;2023-12-04T11:46:25;16.30;;;8.55;;
36283;SDS011;56085;48.910;9.478;2023-12-04T11:48:54;17.15;;;9.00;;
36283;SDS011;56085;48.910;9.478;2023-12-04T11:54:07;10.85;;;6.28;;
36283;SDS011;56085;48.910;9.478;2023-12-04T11:56:33;9.63;;;6.18;;
36283;SDS011;56085;48.910;9.478;2023-12-04T11:59:02;11.25;;;6.60;;
36283;SDS011;56085;48.910;9.478;2023-12-04T12:01:32;12.57;;;6.75;;
36283;SDS011;56085;48.910;9.478;2023-12-04T12:03:59;12.57;;;7.22;;
36283;SDS011;56085;48.910;9.478;2023-12-04T12:06:25;9.52;;;6.30;;
36283;SDS011;56085;48.910;9.478;2023-12-04T12:08:51;26.05;;;11.85;;
36283;SDS011;56085;48.910;9.478;2023-12-04T12:11:17;22.95;;;11.23;;
36283;SDS011;56085;48.910;9.478;2023-12-04T12:13:42;14.55;;;8.77;;
36283;SDS011;56085;48.910;9.478;2023-12-04T12:16:09;20.58;;;10.60;;
36283;SDS011;56085;48.910;9.478;2023-12-04T12:18:35;23.65;;;12.38;;
36283;SDS011;56085;48.910;9.478;2023-12-04T12:21:01;26.13;;;11.27;;
36283;SDS011;56085;48.910;9.478;2023-12-04T12:23:26;34.53;;;15.07;;
36283;SDS011;56085;48.910;9.478;2023-12-04T12:25:52;49.10;;;19.70;;
36283;SDS011;56085;48.910;9.478;2023-12-04T12:28:17;38.13;;;17.55;;
36283;SDS011;56085;48.910;9.478;2023-12-04T12:30:42;20.10;;;10.32;;
36283;SDS011;56085;48.910;9.478;2023-12-04T12:33:12;17.05;;;8.30;;
36283;SDS011;56085;48.910;9.478;2023-12-04T12:35:38;10.70;;;6.82;;
36283;SDS011;56085;48.910;9.478;2023-12-04T12:38:03;13.23;;;7.88;;
36283;SDS011;56085;48.910;9.478;2023-12-04T12:40:29;12.63;;;7.70;;
36283;SDS011;56085;48.910;9.478;2023-12-04T12:43:03;9.63;;;6.32;;
36283;SDS011;56085;48.910;9.478;2023-12-04T12:45:30;13.32;;;7.75;;
36283;SDS011;56085;48.910;9.478;2023-12-04T12:48:03;11.23;;;6.80;;
36283;SDS011;56085;48.910;9.478;2023-12-04T12:50:29;10.43;;;7.13;;
36283;SDS011;56085;48.910;9.478;2023-12-04T12:52:56;9.32;;;5.95;;
36283;SDS011;56085;48.910;9.478;2023-12-04T12:55:23;13.55;;;6.90;;
36283;SDS011;56085;48.910;9.478;2023-12-04T12:57:51;10.38;;;6.63;;
36283;SDS011;56085;48.910;9.478;2023-12-04T13:00:17;11.30;;;6.68;;
36283;SDS011;56085;48.910;9.478;2023-12-04T13:02:44;11.43;;;7.18;;
36283;SDS011;56085;48.910;9.478;2023-12-04T13:05:09;13.32;;;7.70;;
36283;SDS011;56085;48.910;9.478;2023-12-04T13:07:35;12.30;;;6.88;;
36283;SDS011;56085;48.910;9.478;2023-12-04T13:10:00;11.80;;;7.40;;
36283;SDS011;56085;48.910;9.478;2023-12-04T13:12:25;12.63;;;7.35;;
36283;SDS011;56085;48.910;9.478;2023-12-04T13:14:51;12.10;;;7.15;;
36283;SDS011;56085;48.910;9.478;2023-12-04T13:17:16;13.68;;;8.35;;
36283;SDS011;56085;48.910;9.478;2023-12-04T13:19:41;12.55;;;7.47;;
36283;SDS011;56085;48.910;9.478;2023-12-04T13:22:06;10.05;;;6.82;;
36283;SDS011;56085;48.910;9.478;2023-12-04T13:24:32;11.60;;;6.25;;
36283;SDS011;56085;48.910;9.478;2023-12-04T13:26:57;9.57;;;5.80;;
36283;SDS011;56085;48.910;9.478;2023-12-04T13:29:23;9.57;;;6.22;;
36283;SDS011;56085;48.910;9.478;2023-12-04T13:31:48;9.73;;;6.13;;
36283;SDS011;56085;48.910;9.478;2023-12-04T13:34:15;13.38;;;7.38;;
36283;SDS011;56085;48.910;9.478;2023-12-04T13:36:40;12.40;;;7.32;;
36283;SDS011;56085;48.910;9.478;2023-12-04T13:39:06;12.43;;;7.68;;
36283;SDS011;56085;48.910;9.478;2023-12-04T13:41:41;16.42;;;9.35;;
36283;SDS011;56085;48.910;9.478;2023-12-04T13:44:26;14.35;;;9.27;;
36283;SDS011;56085;48.910;9.478;2023-12-04T13:46:52;12.85;;;8.38;;
36283;SDS011;56085;48.910;9.478;2023-12-04T13:49:17;10.45;;;7.25;;
36283;SDS011;56085;48.910;9.478;2023-12-04T13:51:44;15.07;;;8.27;;
36283;SDS011;56085;48.910;9.478;2023-12-04T13:54:10;16.10;;;9.63;;
36283;SDS011;56085;48.910;9.478;2023-12-04T13:56:46;14.00;;;9.25;;
36283;SDS011;56085;48.910;9.478;2023-12-04T13:59:22;13.25;;;8.50;;
36283;SDS011;56085;48.910;9.478;2023-12-04T14:01:49;11.95;;;7.03;;
36283;SDS011;56085;48.910;9.478;2023-12-04T14:04:15;13.55;;;7.63;;
36283;SDS011;56085;48.910;9.478;2023-12-04T14:06:41;12.88;;;7.20;;
36283;SDS011;56085;48.910;9.478;2023-12-04T14:09:06;12.25;;;6.72;;
36283;SDS011;56085;48.910;9.478;2023-12-04T14:11:36;15.68;;;7.43;;
36283;SDS011;56085;48.910;9.478;2023-12-04T14:14:02;12.07;;;6.95;;
36283;SDS011;56085;48.910;9.478;2023-12-04T14:16:28;12.65;;;6.68;;
36283;SDS011;56085;48.910;9.478;2023-12-04T14:18:54;11.85;;;6.95;;
36283;SDS011;56085;48.910;9.478;2023-12-04T14:21:19;11.05;;;6.97;;
36283;SDS011;56085;48.910;9.478;2023-12-04T14:23:44;10.98;;;6.95;;
36283;SDS011;56085;48.910;9.478;2023-12-04T14:26:10;18.70;;;9.75;;
36283;SDS011;56085;48.910;9.478;2023-12-04T14:28:35;12.93;;;7.75;;
36283;SDS011;56085;48.910;9.478;2023-12-04T14:31:01;11.45;;;6.88;;
36283;SDS011;56085;48.910;9.478;2023-12-04T14:33:26;13.25;;;7.22;;
36283;SDS011;56085;48.910;9.478;2023-12-04T14:35:51;11.88;;;7.90;;